createdAt,value
2022-09-03T00:00:04.244Z,0.00
2022-09-03T00:01:04.526Z,0.00
2022-09-03T00:02:05.203Z,0.00
2022-09-03T00:03:04.179Z,0.00
2022-09-03T00:04:04.999Z,0.00
2022-09-03T00:05:04.144Z,0.00
2022-09-03T00:06:04.150Z,0.00
2022-09-03T00:07:04.303Z,0.00
2022-09-03T00:08:04.132Z,0.00
2022-09-03T00:09:04.004Z,0.00
2022-09-03T00:10:04.038Z,0.00
2022-09-03T00:11:04.024Z,0.00
2022-09-03T00:12:04.053Z,0.00
2022-09-03T00:13:04.482Z,0.00
2022-09-03T00:14:04.004Z,0.00
2022-09-03T00:15:04.039Z,0.00
2022-09-03T00:16:04.148Z,0.00
2022-09-03T00:17:04.118Z,0.00
2022-09-03T00:18:03.846Z,0.00
2022-09-03T00:19:04.218Z,0.00
2022-09-03T00:20:03.945Z,0.00
2022-09-03T00:21:03.855Z,0.00
2022-09-03T00:22:03.780Z,0.00
2022-09-03T00:23:03.767Z,0.00
2022-09-03T00:24:03.748Z,0.00
2022-09-03T00:25:03.739Z,0.00
2022-09-03T00:26:03.770Z,0.00
2022-09-03T00:27:03.852Z,0.00
2022-09-03T00:28:03.700Z,0.00
2022-09-03T00:29:03.684Z,0.00
2022-09-03T00:30:03.694Z,0.00
2022-09-03T00:31:03.675Z,0.00
2022-09-03T00:32:03.658Z,0.00
2022-09-03T00:33:03.654Z,0.00
2022-09-03T00:34:03.655Z,0.00
2022-09-03T00:35:03.605Z,0.00
2022-09-03T00:36:03.706Z,0.00
2022-09-03T00:37:03.797Z,0.00
2022-09-03T00:38:03.651Z,0.00
2022-09-03T00:39:03.706Z,0.00
2022-09-03T00:40:03.861Z,0.00
2022-09-03T00:41:03.753Z,0.00
2022-09-03T00:42:03.720Z,0.00
2022-09-03T00:43:03.634Z,0.00
2022-09-03T00:44:03.802Z,0.00
2022-09-03T00:45:03.672Z,0.00
2022-09-03T00:46:03.627Z,0.00
2022-09-03T00:47:03.828Z,0.00
2022-09-03T00:48:03.690Z,0.00
2022-09-03T00:49:03.783Z,0.00
2022-09-03T00:50:03.683Z,0.00
2022-09-03T00:51:03.770Z,0.00
2022-09-03T00:52:03.615Z,0.00
2022-09-03T00:53:03.914Z,0.00
2022-09-03T00:54:03.532Z,0.00
2022-09-03T00:55:03.548Z,0.00
2022-09-03T00:56:03.470Z,0.00
2022-09-03T00:57:03.546Z,0.00
2022-09-03T00:58:03.592Z,0.00
2022-09-03T00:59:03.574Z,0.00
2022-09-03T01:00:03.600Z,0.00
2022-09-03T01:01:03.621Z,0.00
2022-09-03T01:02:03.728Z,0.00
2022-09-03T01:03:03.447Z,0.00
2022-09-03T01:04:03.362Z,0.00
2022-09-03T01:05:03.549Z,0.00
2022-09-03T01:06:03.429Z,0.00
2022-09-03T01:07:03.347Z,0.00
2022-09-03T01:08:03.393Z,0.00
2022-09-03T01:09:03.423Z,0.00
2022-09-03T01:10:03.399Z,0.00
2022-09-03T01:11:03.436Z,0.00
2022-09-03T01:12:03.503Z,0.00
2022-09-03T01:13:04.451Z,0.00
2022-09-03T01:14:03.333Z,0.00
2022-09-03T01:15:03.266Z,0.00
2022-09-03T01:16:03.338Z,0.00
2022-09-03T01:17:03.303Z,0.00
2022-09-03T01:18:03.308Z,0.00
2022-09-03T01:19:03.224Z,0.00
2022-09-03T01:20:03.315Z,0.00
2022-09-03T01:21:03.278Z,0.00
2022-09-03T01:22:03.226Z,0.00
2022-09-03T01:23:03.591Z,0.00
2022-09-03T01:24:03.477Z,0.00
2022-09-03T01:25:03.109Z,0.00
2022-09-03T01:26:03.247Z,0.00
2022-09-03T01:27:03.284Z,0.00
2022-09-03T01:28:03.275Z,0.00
2022-09-03T01:29:03.206Z,0.00
2022-09-03T01:30:03.146Z,0.00
2022-09-03T01:33:21.304Z,0.00
2022-09-03T01:34:21.396Z,0.00
2022-09-03T01:35:21.371Z,0.00
2022-09-03T01:36:21.403Z,0.00
2022-09-03T01:37:21.409Z,0.00
2022-09-03T01:38:21.368Z,0.00
2022-09-03T01:39:21.388Z,0.00
2022-09-03T01:40:21.339Z,0.00
2022-09-03T01:41:21.452Z,0.00
2022-09-03T01:42:21.342Z,0.00
2022-09-03T01:43:21.030Z,0.00
2022-09-03T01:44:21.034Z,0.00
2022-09-03T01:45:21.204Z,0.00
2022-09-03T01:46:21.260Z,0.00
2022-09-03T01:47:21.186Z,0.00
2022-09-03T01:48:21.030Z,0.00
2022-09-03T01:49:21.207Z,0.00
2022-09-03T01:50:21.027Z,0.00
2022-09-03T01:51:21.109Z,0.00
2022-09-03T01:52:21.176Z,0.00
2022-09-03T01:53:20.979Z,0.00
2022-09-03T01:54:21.726Z,0.00
2022-09-03T01:55:20.917Z,0.00
2022-09-03T01:56:20.994Z,0.00
2022-09-03T01:57:34.574Z,0.00
2022-09-03T01:58:22.008Z,0.00
2022-09-03T01:59:20.993Z,0.00
2022-09-03T02:00:20.922Z,0.00
2022-09-03T02:01:21.130Z,0.00
2022-09-03T02:02:21.011Z,0.00
2022-09-03T02:03:20.876Z,0.00
2022-09-03T02:04:20.873Z,0.00
2022-09-03T02:05:20.837Z,0.00
2022-09-03T02:06:20.814Z,0.00
2022-09-03T02:07:20.811Z,0.00
2022-09-03T02:08:20.898Z,0.00
2022-09-03T02:09:20.883Z,0.00
2022-09-03T02:10:20.895Z,0.00
2022-09-03T02:11:20.878Z,0.00
2022-09-03T02:12:20.837Z,0.00
2022-09-03T02:13:20.808Z,0.00
2022-09-03T02:14:20.855Z,0.00
2022-09-03T02:15:20.816Z,0.00
2022-09-03T02:16:20.913Z,0.00
2022-09-03T02:17:20.802Z,0.00
2022-09-03T02:18:20.763Z,0.00
2022-09-03T02:19:20.732Z,0.00
2022-09-03T02:20:20.770Z,0.00
2022-09-03T02:21:20.968Z,0.00
2022-09-03T02:22:20.763Z,0.00
2022-09-03T02:23:27.501Z,0.00
2022-09-03T02:24:21.672Z,0.00
2022-09-03T02:25:20.620Z,0.00
2022-09-03T02:26:20.703Z,0.00
2022-09-03T02:27:20.780Z,0.00
2022-09-03T02:28:20.725Z,0.00
2022-09-03T02:29:20.657Z,0.00
2022-09-03T02:30:20.636Z,0.00
2022-09-03T02:31:20.636Z,0.00
2022-09-03T02:32:20.538Z,0.00
2022-09-03T02:33:20.650Z,0.00
2022-09-03T02:34:20.622Z,0.00
2022-09-03T02:35:20.557Z,0.00
2022-09-03T02:36:20.522Z,0.00
2022-09-03T02:37:20.546Z,0.00
2022-09-03T02:38:20.616Z,0.00
2022-09-03T02:39:20.522Z,0.00
2022-09-03T02:40:20.522Z,0.00
2022-09-03T02:41:20.679Z,0.00
2022-09-03T02:42:20.495Z,0.00
2022-09-03T02:43:20.460Z,0.00
2022-09-03T02:44:21.505Z,0.00
2022-09-03T02:45:20.459Z,0.00
2022-09-03T02:46:20.537Z,0.00
2022-09-03T02:47:20.496Z,0.00
2022-09-03T02:48:20.558Z,0.00
2022-09-03T02:49:20.399Z,0.00
2022-09-03T02:50:20.395Z,0.00
2022-09-03T02:51:20.411Z,0.00
2022-09-03T02:52:20.357Z,0.00
2022-09-03T02:53:20.599Z,0.00
2022-09-03T02:54:21.290Z,0.00
2022-09-03T02:55:20.767Z,0.00
2022-09-03T02:56:20.295Z,0.00
2022-09-03T02:57:27.269Z,0.00
2022-09-03T02:58:21.417Z,0.00
2022-09-03T02:59:20.283Z,0.00
2022-09-03T03:00:20.264Z,0.00
2022-09-03T03:01:23.809Z,0.00
2022-09-03T03:02:20.362Z,0.00
2022-09-03T03:03:20.479Z,0.00
2022-09-03T03:04:20.259Z,0.00
2022-09-03T03:05:20.280Z,0.00
2022-09-03T03:06:20.329Z,0.00
2022-09-03T03:07:20.217Z,0.00
2022-09-03T03:08:20.299Z,0.00
2022-09-03T03:09:20.158Z,0.00
2022-09-03T03:10:20.366Z,0.00
2022-09-03T03:11:20.141Z,0.00
2022-09-03T03:12:20.112Z,0.00
2022-09-03T03:13:20.270Z,0.00
2022-09-03T03:14:20.317Z,0.00
2022-09-03T03:15:20.118Z,0.00
2022-09-03T03:16:20.190Z,0.00
2022-09-03T03:17:20.208Z,0.00
2022-09-03T03:18:20.211Z,0.00
2022-09-03T03:19:20.095Z,0.00
2022-09-03T03:20:20.108Z,0.00
2022-09-03T03:21:20.062Z,0.00
2022-09-03T03:22:20.053Z,0.00
2022-09-03T03:23:20.050Z,0.00
2022-09-03T03:24:20.056Z,0.00
2022-09-03T03:25:20.026Z,0.00
2022-09-03T03:26:19.949Z,0.00
2022-09-03T03:27:19.965Z,0.00
2022-09-03T03:28:22.755Z,0.00
2022-09-03T03:29:20.107Z,0.00
2022-09-03T03:30:20.026Z,0.00
2022-09-03T03:31:20.136Z,0.00
2022-09-03T03:32:20.035Z,0.00
2022-09-03T03:33:20.051Z,0.00
2022-09-03T03:34:19.936Z,0.00
2022-09-03T03:35:19.932Z,0.00
2022-09-03T03:36:19.949Z,0.00
2022-09-03T03:37:19.884Z,0.00
2022-09-03T03:38:19.883Z,0.00
2022-09-03T03:39:19.857Z,0.00
2022-09-03T03:40:19.894Z,0.00
2022-09-03T03:41:19.825Z,0.00
2022-09-03T03:42:19.890Z,0.00
2022-09-03T03:43:19.937Z,0.00
2022-09-03T03:44:19.827Z,0.00
2022-09-03T03:45:19.825Z,0.00
2022-09-03T03:46:19.946Z,0.00
2022-09-03T03:47:19.821Z,0.00
2022-09-03T03:48:19.833Z,0.00
2022-09-03T03:49:19.717Z,0.00
2022-09-03T03:50:19.699Z,0.00
2022-09-03T03:51:19.750Z,0.00
2022-09-03T03:52:19.771Z,0.00
2022-09-03T03:53:19.773Z,0.00
2022-09-03T03:54:19.734Z,0.00
2022-09-03T03:55:19.706Z,0.00
2022-09-03T03:56:20.003Z,0.00
2022-09-03T03:57:19.687Z,0.00
2022-09-03T03:58:19.646Z,0.00
2022-09-03T03:59:19.819Z,0.00
2022-09-03T04:00:19.659Z,0.00
2022-09-03T04:01:19.595Z,0.00
2022-09-03T04:02:19.705Z,0.00
2022-09-03T04:03:19.583Z,0.00
2022-09-03T04:04:19.731Z,0.00
2022-09-03T04:05:23.125Z,4.00
2022-09-03T04:06:19.612Z,4.00
2022-09-03T04:07:19.577Z,0.00
2022-09-03T04:08:19.549Z,4.00
2022-09-03T04:09:19.475Z,4.00
2022-09-03T04:10:19.693Z,4.00
2022-09-03T04:11:19.582Z,4.00
2022-09-03T04:12:19.488Z,4.00
2022-09-03T04:13:19.454Z,8.00
2022-09-03T04:14:19.530Z,8.00
2022-09-03T04:15:19.481Z,8.00
2022-09-03T04:16:19.652Z,8.00
2022-09-03T04:17:24.547Z,12.00
2022-09-03T04:18:20.432Z,16.00
2022-09-03T04:19:19.440Z,16.00
2022-09-03T04:20:19.501Z,20.00
2022-09-03T04:21:19.344Z,24.00
2022-09-03T04:22:19.500Z,28.00
2022-09-03T04:23:19.374Z,32.00
2022-09-03T04:24:19.830Z,36.00
2022-09-03T04:25:19.357Z,44.00
2022-09-03T04:26:19.342Z,52.00
2022-09-03T04:27:19.441Z,60.00
2022-09-03T04:28:19.383Z,68.00
2022-09-03T04:29:19.323Z,84.00
2022-09-03T04:30:19.338Z,96.00
2022-09-03T04:31:19.686Z,108.00
2022-09-03T04:32:19.315Z,124.00
2022-09-03T04:33:19.267Z,144.00
2022-09-03T04:34:19.389Z,160.00
2022-09-03T04:35:19.375Z,184.00
2022-09-03T04:36:19.316Z,204.00
2022-09-03T04:37:19.297Z,232.00
2022-09-03T04:38:19.288Z,260.00
2022-09-03T04:39:19.229Z,288.00
2022-09-03T04:40:19.168Z,320.00
2022-09-03T04:41:19.156Z,356.00
2022-09-03T04:42:19.271Z,388.00
2022-09-03T04:43:19.218Z,424.00
2022-09-03T04:44:19.224Z,464.00
2022-09-03T04:45:19.169Z,504.00
2022-09-03T04:46:19.363Z,548.00
2022-09-03T04:47:19.162Z,592.00
2022-09-03T04:48:19.130Z,640.00
2022-09-03T04:49:19.149Z,688.00
2022-09-03T04:50:19.150Z,736.00
2022-09-03T04:51:19.087Z,788.00
2022-09-03T04:52:19.087Z,840.00
2022-09-03T04:53:19.290Z,900.00
2022-09-03T04:54:19.140Z,960.00
2022-09-03T04:55:18.980Z,1020.00
2022-09-03T04:56:19.046Z,1088.00
2022-09-03T04:57:19.002Z,1144.00
2022-09-03T04:58:19.108Z,1216.00
2022-09-03T04:59:27.744Z,1280.00
2022-09-03T05:00:20.846Z,1348.00
2022-09-03T05:01:20.758Z,1408.00
2022-09-03T05:02:18.918Z,1480.00
2022-09-03T05:03:18.888Z,1548.00
2022-09-03T05:04:18.880Z,1620.00
2022-09-03T05:05:18.889Z,1692.00
2022-09-03T05:06:18.847Z,1764.00
2022-09-03T05:07:18.859Z,1840.00
2022-09-03T05:08:18.835Z,1912.00
2022-09-03T05:09:18.825Z,1992.00
2022-09-03T05:10:18.806Z,2072.00
2022-09-03T05:11:18.798Z,2152.00
2022-09-03T05:12:18.793Z,2228.00
2022-09-03T05:13:18.791Z,2300.00
2022-09-03T05:14:18.766Z,2372.00
2022-09-03T05:15:18.748Z,2444.00
2022-09-03T05:16:18.789Z,2512.00
2022-09-03T05:17:18.734Z,2580.00
2022-09-03T05:18:18.747Z,2648.00
2022-09-03T05:19:18.712Z,2716.00
2022-09-03T05:20:18.709Z,2788.00
2022-09-03T05:21:18.698Z,2852.00
2022-09-03T05:22:18.681Z,2912.00
2022-09-03T05:23:18.671Z,2972.00
2022-09-03T05:24:18.662Z,3032.00
2022-09-03T05:25:18.647Z,3096.00
2022-09-03T05:26:18.639Z,3156.00
2022-09-03T05:27:18.649Z,3212.00
2022-09-03T05:28:18.819Z,3268.00
2022-09-03T05:29:18.618Z,3324.00
2022-09-03T05:30:18.615Z,3376.00
2022-09-03T05:31:18.662Z,3424.00
2022-09-03T05:32:18.566Z,3476.00
2022-09-03T05:33:18.566Z,3524.00
2022-09-03T05:34:18.724Z,3568.00
2022-09-03T05:35:20.971Z,3616.00
2022-09-03T05:36:18.520Z,3668.00
2022-09-03T05:37:18.516Z,3720.00
2022-09-03T05:38:18.508Z,3772.00
2022-09-03T05:39:18.543Z,3820.00
2022-09-03T05:40:18.479Z,3868.00
2022-09-03T05:41:19.136Z,3912.00
2022-09-03T05:42:18.467Z,3952.00
2022-09-03T05:43:18.448Z,3992.00
2022-09-03T05:44:18.434Z,4040.00
2022-09-03T05:45:18.557Z,4084.00
2022-09-03T05:46:18.406Z,4124.00
2022-09-03T05:47:18.422Z,4172.00
2022-09-03T05:48:18.388Z,4220.00
2022-09-03T05:49:18.416Z,4268.00
2022-09-03T05:50:18.370Z,4316.00
2022-09-03T05:51:18.377Z,4360.00
2022-09-03T05:52:18.363Z,4408.00
2022-09-03T05:53:18.368Z,4452.00
2022-09-03T05:54:18.331Z,4496.00
2022-09-03T05:55:18.339Z,4536.00
2022-09-03T05:56:18.308Z,4580.00
2022-09-03T05:57:18.319Z,4628.00
2022-09-03T05:58:18.280Z,4672.00
2022-09-03T05:59:18.528Z,4724.00
2022-09-03T06:00:18.374Z,4756.00
2022-09-03T06:01:18.268Z,4804.00
2022-09-03T06:02:18.391Z,4860.00
2022-09-03T06:03:18.419Z,4912.00
2022-09-03T06:04:18.270Z,4960.00
2022-09-03T06:05:18.223Z,5020.00
2022-09-03T06:06:18.213Z,5072.00
2022-09-03T06:07:18.189Z,5124.00
2022-09-03T06:08:18.171Z,5168.00
2022-09-03T06:09:18.189Z,5224.00
2022-09-03T06:10:20.282Z,5272.00
2022-09-03T06:11:19.142Z,5304.00
2022-09-03T06:12:18.131Z,5224.00
2022-09-03T06:13:18.166Z,5152.00
2022-09-03T06:14:18.122Z,5292.00
2022-09-03T06:15:18.107Z,5504.00
2022-09-03T06:16:18.186Z,5576.00
2022-09-03T06:17:19.084Z,5632.00
2022-09-03T06:18:18.077Z,5688.00
2022-09-03T06:19:18.082Z,5740.00
2022-09-03T06:20:18.054Z,5788.00
2022-09-03T06:21:18.041Z,5840.00
2022-09-03T06:22:18.037Z,5888.00
2022-09-03T06:23:18.037Z,5940.00
2022-09-03T06:24:18.008Z,5984.00
2022-09-03T06:25:17.989Z,6032.00
2022-09-03T06:26:17.980Z,6084.00
2022-09-03T06:27:17.976Z,6132.00
2022-09-03T06:28:17.977Z,6180.00
2022-09-03T06:29:20.146Z,6212.00
2022-09-03T06:30:17.985Z,6260.00
2022-09-03T06:31:17.987Z,6312.00
2022-09-03T06:32:18.199Z,6352.00
2022-09-03T06:33:17.920Z,6392.00
2022-09-03T06:34:17.920Z,6428.00
2022-09-03T06:35:17.916Z,6464.00
2022-09-03T06:36:17.877Z,6488.00
2022-09-03T06:37:17.873Z,6528.00
2022-09-03T06:38:17.859Z,6568.00
2022-09-03T06:39:17.916Z,6616.00
2022-09-03T06:40:17.842Z,6652.00
2022-09-03T06:41:17.832Z,6688.00
2022-09-03T06:42:17.819Z,6712.00
2022-09-03T06:43:17.824Z,6748.00
2022-09-03T06:44:17.791Z,6792.00
2022-09-03T06:45:17.791Z,6832.00
2022-09-03T06:46:17.840Z,6864.00
2022-09-03T06:47:17.765Z,6860.00
2022-09-03T06:48:17.761Z,6940.00
2022-09-03T06:49:17.760Z,6980.00
2022-09-03T06:50:17.742Z,6864.00
2022-09-03T06:51:17.978Z,6840.00
2022-09-03T06:52:17.734Z,7000.00
2022-09-03T06:53:17.710Z,7052.00
2022-09-03T06:54:17.676Z,6992.00
2022-09-03T06:55:18.636Z,6988.00
2022-09-03T06:56:17.694Z,6988.00
2022-09-03T06:57:17.782Z,6976.00
2022-09-03T06:58:17.682Z,6976.00
2022-09-03T06:59:17.633Z,7012.00
2022-09-03T07:00:17.979Z,7112.00
2022-09-03T07:01:17.737Z,7188.00
2022-09-03T07:02:17.813Z,7240.00
2022-09-03T07:03:17.601Z,7320.00
2022-09-03T07:04:19.361Z,7400.00
2022-09-03T07:05:17.584Z,7484.00
2022-09-03T07:06:17.559Z,7576.00
2022-09-03T07:07:17.550Z,7608.00
2022-09-03T07:08:17.543Z,7652.00
2022-09-03T07:09:17.528Z,7684.00
2022-09-03T07:10:17.517Z,7708.00
2022-09-03T07:11:17.505Z,7736.00
2022-09-03T07:12:17.511Z,7772.00
2022-09-03T07:13:17.493Z,7796.00
2022-09-03T07:14:17.483Z,7812.00
2022-09-03T07:15:17.455Z,7832.00
2022-09-03T07:16:17.529Z,7852.00
2022-09-03T07:17:17.448Z,7864.00
2022-09-03T07:18:17.554Z,7796.00
2022-09-03T07:19:17.415Z,7252.00
2022-09-03T07:20:17.406Z,7300.00
2022-09-03T07:21:17.398Z,7096.00
2022-09-03T07:22:17.385Z,7204.00
2022-09-03T07:23:17.409Z,7236.00
2022-09-03T07:24:17.515Z,7244.00
2022-09-03T07:25:17.366Z,7360.00
2022-09-03T07:26:17.348Z,7356.00
2022-09-03T07:27:17.408Z,7212.00
2022-09-03T07:28:17.330Z,7332.00
2022-09-03T07:29:17.319Z,7628.00
2022-09-03T07:30:17.296Z,7984.00
2022-09-03T07:31:17.373Z,8156.00
2022-09-03T07:32:17.294Z,8236.00
2022-09-03T07:33:17.279Z,8240.00
2022-09-03T07:34:17.338Z,8388.00
2022-09-03T07:35:17.253Z,8268.00
2022-09-03T07:36:17.234Z,8316.00
2022-09-03T07:37:17.229Z,8372.00
2022-09-03T07:38:17.216Z,8336.00
2022-09-03T07:39:17.268Z,8436.00
2022-09-03T07:40:17.187Z,8360.00
2022-09-03T07:41:23.946Z,8420.00
2022-09-03T07:42:18.181Z,8332.00
2022-09-03T07:43:17.206Z,8432.00
2022-09-03T07:44:17.161Z,8504.00
2022-09-03T07:45:17.254Z,8468.00
2022-09-03T07:46:17.134Z,8528.00
2022-09-03T07:47:17.264Z,8528.00
2022-09-03T07:48:18.114Z,8536.00
2022-09-03T07:49:17.098Z,8540.00
2022-09-03T07:50:17.078Z,8552.00
2022-09-03T07:51:17.080Z,8964.00
2022-09-03T07:52:17.060Z,9036.00
2022-09-03T07:53:17.071Z,9000.00
2022-09-03T07:54:17.060Z,8676.00
2022-09-03T07:55:17.048Z,8388.00
2022-09-03T07:56:17.039Z,8708.00
2022-09-03T07:57:17.001Z,8556.00
2022-09-03T07:58:17.012Z,8492.00
2022-09-03T07:59:17.241Z,8604.00
2022-09-03T08:00:16.990Z,8600.00
2022-09-03T08:01:17.105Z,8564.00
2022-09-03T08:02:16.981Z,8624.00
2022-09-03T08:03:16.989Z,8628.00
2022-09-03T08:04:17.049Z,8744.00
2022-09-03T08:05:16.924Z,8768.00
2022-09-03T08:06:16.911Z,8792.00
2022-09-03T08:07:16.908Z,8824.00
2022-09-03T08:08:16.903Z,8816.00
2022-09-03T08:09:17.100Z,8832.00
2022-09-03T08:10:16.890Z,8836.00
2022-09-03T08:11:17.093Z,8856.00
2022-09-03T08:12:16.875Z,8576.00
2022-09-03T08:13:16.833Z,8848.00
2022-09-03T08:14:17.248Z,8592.00
2022-09-03T08:15:17.248Z,8756.00
2022-09-03T08:16:16.989Z,8728.00
2022-09-03T08:17:16.813Z,8704.00
2022-09-03T08:18:16.865Z,8732.00
2022-09-03T08:19:16.781Z,8748.00
2022-09-03T08:20:16.775Z,8756.00
2022-09-03T08:21:16.770Z,8800.00
2022-09-03T08:22:16.754Z,8792.00
2022-09-03T08:23:16.744Z,8792.00
2022-09-03T08:24:16.765Z,8732.00
2022-09-03T08:25:16.742Z,8668.00
2022-09-03T08:26:16.710Z,8768.00
2022-09-03T08:27:16.684Z,8856.00
2022-09-03T08:28:16.696Z,8876.00
2022-09-03T08:29:16.677Z,8948.00
2022-09-03T08:30:16.660Z,9008.00
2022-09-03T08:31:16.710Z,9052.00
2022-09-03T08:32:16.665Z,9068.00
2022-09-03T08:33:16.777Z,9084.00
2022-09-03T08:34:16.784Z,9116.00
2022-09-03T08:35:16.590Z,9136.00
2022-09-03T08:36:16.610Z,9128.00
2022-09-03T08:37:16.586Z,9128.00
2022-09-03T08:38:16.576Z,9104.00
2022-09-03T08:39:17.595Z,9080.00
2022-09-03T08:40:16.554Z,9096.00
2022-09-03T08:41:16.539Z,9076.00
2022-09-03T08:42:16.534Z,9096.00
2022-09-03T08:43:16.512Z,9048.00
2022-09-03T08:44:16.509Z,9152.00
2022-09-03T08:45:16.506Z,8984.00
2022-09-03T08:46:16.521Z,9048.00
2022-09-03T08:47:16.493Z,9020.00
2022-09-03T08:48:16.470Z,9024.00
2022-09-03T08:49:18.420Z,8936.00
2022-09-03T08:50:16.435Z,9120.00
2022-09-03T08:51:16.421Z,9232.00
2022-09-03T08:52:16.418Z,9296.00
2022-09-03T08:53:16.409Z,9352.00
2022-09-03T08:54:16.414Z,9380.00
2022-09-03T08:55:16.413Z,9380.00
2022-09-03T08:56:16.391Z,9384.00
2022-09-03T08:57:16.388Z,9436.00
2022-09-03T08:58:16.408Z,9472.00
2022-09-03T08:59:16.339Z,9520.00
2022-09-03T09:00:16.385Z,9520.00
2022-09-03T09:01:16.392Z,9584.00
2022-09-03T09:02:16.519Z,9616.00
2022-09-03T09:03:16.515Z,9676.00
2022-09-03T09:04:16.300Z,9704.00
2022-09-03T09:05:16.286Z,9744.00
2022-09-03T09:06:16.273Z,9764.00
2022-09-03T09:07:16.248Z,9796.00
2022-09-03T09:08:16.339Z,9820.00
2022-09-03T09:09:16.232Z,9856.00
2022-09-03T09:10:16.232Z,9880.00
2022-09-03T09:11:16.213Z,9908.00
2022-09-03T09:12:16.218Z,9904.00
2022-09-03T09:13:16.386Z,9916.00
2022-09-03T09:14:16.209Z,9924.00
2022-09-03T09:15:16.172Z,9908.00
2022-09-03T09:16:16.269Z,9908.00
2022-09-03T09:17:16.145Z,9996.00
2022-09-03T09:18:16.146Z,10028.00
2022-09-03T09:19:16.153Z,10088.00
2022-09-03T09:20:16.113Z,10140.00
2022-09-03T09:21:21.002Z,10192.00
2022-09-03T09:22:17.104Z,10232.00
2022-09-03T09:23:16.087Z,10252.00
2022-09-03T09:24:16.083Z,10284.00
2022-09-03T09:25:16.078Z,10332.00
2022-09-03T09:26:16.064Z,10376.00
2022-09-03T09:27:16.165Z,10380.00
2022-09-03T09:28:16.094Z,10420.00
2022-09-03T09:29:16.034Z,10460.00
2022-09-03T09:30:16.019Z,10496.00
2022-09-03T09:31:16.105Z,10536.00
2022-09-03T09:32:16.279Z,10592.00
2022-09-03T09:33:15.987Z,10620.00
2022-09-03T09:34:16.039Z,10652.00
2022-09-03T09:35:15.967Z,10688.00
2022-09-03T09:36:15.960Z,10736.00
2022-09-03T09:37:15.937Z,10776.00
2022-09-03T09:38:18.700Z,10812.00
2022-09-03T09:39:15.898Z,10844.00
2022-09-03T09:40:15.920Z,10920.00
2022-09-03T09:41:15.895Z,10924.00
2022-09-03T09:42:15.876Z,10972.00
2022-09-03T09:43:15.886Z,11012.00
2022-09-03T09:44:15.859Z,11028.00
2022-09-03T09:45:15.851Z,11052.00
2022-09-03T09:46:16.236Z,11096.00
2022-09-03T09:47:15.843Z,11136.00
2022-09-03T09:48:15.845Z,11188.00
2022-09-03T09:49:15.831Z,11216.00
2022-09-03T09:50:24.842Z,11276.00
2022-09-03T09:51:16.788Z,11308.00
2022-09-03T09:52:15.778Z,11392.00
2022-09-03T09:53:15.764Z,11396.00
2022-09-03T09:54:15.758Z,11516.00
2022-09-03T09:55:15.746Z,11564.00
2022-09-03T09:56:15.743Z,11600.00
2022-09-03T09:57:15.741Z,11668.00
2022-09-03T09:58:15.764Z,11704.00
2022-09-03T09:59:16.077Z,11764.00
2022-09-03T10:00:15.692Z,11832.00
2022-09-03T10:01:15.693Z,12108.00
2022-09-03T10:02:22.543Z,11936.00
2022-09-03T10:03:16.783Z,11952.00
2022-09-03T10:04:15.642Z,11980.00
2022-09-03T10:05:15.729Z,12012.00
2022-09-03T10:06:15.618Z,12016.00
2022-09-03T10:07:15.610Z,12020.00
2022-09-03T10:08:15.620Z,12036.00
2022-09-03T10:09:16.136Z,12028.00
2022-09-03T10:10:15.645Z,12076.00
2022-09-03T10:11:15.584Z,12100.00
2022-09-03T10:12:15.556Z,12128.00
2022-09-03T10:13:15.566Z,12168.00
2022-09-03T10:14:15.552Z,12172.00
2022-09-03T10:15:15.770Z,12196.00
2022-09-03T10:16:15.569Z,12216.00
2022-09-03T10:17:15.536Z,12240.00
2022-09-03T10:18:15.508Z,12264.00
2022-09-03T10:19:15.488Z,12272.00
2022-09-03T10:20:15.508Z,12320.00
2022-09-03T10:21:15.688Z,12356.00
2022-09-03T10:22:15.481Z,12408.00
2022-09-03T10:23:15.443Z,12452.00
2022-09-03T10:24:15.438Z,12532.00
2022-09-03T10:25:15.424Z,12584.00
2022-09-03T10:26:15.420Z,12616.00
2022-09-03T10:27:15.408Z,12664.00
2022-09-03T10:28:15.423Z,12672.00
2022-09-03T10:29:15.888Z,12696.00
2022-09-03T10:30:15.404Z,12708.00
2022-09-03T10:31:15.513Z,12748.00
2022-09-03T10:32:15.484Z,12772.00
2022-09-03T10:33:15.479Z,12828.00
2022-09-03T10:34:15.369Z,12892.00
2022-09-03T10:35:15.495Z,12976.00
2022-09-03T10:36:15.498Z,13020.00
2022-09-03T10:37:15.302Z,13100.00
2022-09-03T10:38:15.348Z,13156.00
2022-09-03T10:39:15.315Z,13204.00
2022-09-03T10:40:15.361Z,13272.00
2022-09-03T10:41:15.273Z,13312.00
2022-09-03T10:42:15.249Z,13420.00
2022-09-03T10:43:15.331Z,13432.00
2022-09-03T10:44:15.238Z,13508.00
2022-09-03T10:45:15.226Z,13576.00
2022-09-03T10:46:15.260Z,13644.00
2022-09-03T10:47:15.206Z,13724.00
2022-09-03T10:48:15.180Z,13844.00
2022-09-03T10:49:15.152Z,13940.00
2022-09-03T10:50:15.161Z,14092.00
2022-09-03T10:51:15.157Z,14212.00
2022-09-03T10:52:15.144Z,14388.00
2022-09-03T10:53:15.122Z,14636.00
2022-09-03T10:54:15.211Z,14824.00
2022-09-03T10:55:15.131Z,15008.00
2022-09-03T10:56:15.104Z,15164.00
2022-09-03T10:57:15.095Z,15252.00
2022-09-03T10:58:15.096Z,15352.00
2022-09-03T10:59:15.081Z,15424.00
2022-09-03T11:00:15.251Z,15436.00
2022-09-03T11:01:15.102Z,15272.00
2022-09-03T11:02:15.111Z,15096.00
2022-09-03T11:03:15.026Z,15020.00
2022-09-03T11:04:16.016Z,14972.00
2022-09-03T11:05:15.015Z,14980.00
2022-09-03T11:06:15.000Z,15264.00
2022-09-03T11:07:15.045Z,15248.00
2022-09-03T11:08:14.976Z,15244.00
2022-09-03T11:09:14.958Z,15280.00
2022-09-03T11:10:14.975Z,15348.00
2022-09-03T11:11:15.106Z,15424.00
2022-09-03T11:12:14.936Z,15472.00
2022-09-03T11:13:14.918Z,15828.00
2022-09-03T11:14:15.009Z,16352.00
2022-09-03T11:15:14.906Z,17696.00
2022-09-03T11:16:14.987Z,22592.00
2022-09-03T11:17:14.887Z,25376.00
2022-09-03T11:18:14.858Z,58592.00
2022-09-03T11:19:14.850Z,47968.00
2022-09-03T11:20:14.851Z,54656.00
2022-09-03T11:21:14.839Z,53120.00
2022-09-03T11:22:14.834Z,56096.00
2022-09-03T11:23:15.826Z,57632.00
2022-09-03T11:24:14.815Z,59232.00
2022-09-03T11:25:14.780Z,59328.00
2022-09-03T11:26:14.812Z,57024.00
2022-09-03T11:27:14.788Z,55744.00
2022-09-03T11:28:14.769Z,58048.00
2022-09-03T11:29:14.780Z,60096.00
2022-09-03T11:30:14.758Z,58464.00
2022-09-03T11:31:14.777Z,56928.00
2022-09-03T11:32:14.724Z,55936.00
2022-09-03T11:33:14.720Z,57152.00
2022-09-03T11:34:23.444Z,61568.00
2022-09-03T11:35:15.683Z,63200.00
2022-09-03T11:36:14.688Z,62592.00
2022-09-03T11:37:14.663Z,61984.00
2022-09-03T11:38:14.716Z,63456.00
2022-09-03T11:39:15.604Z,64288.00
2022-09-03T11:40:15.137Z,65760.00
2022-09-03T11:41:14.625Z,64992.00
2022-09-03T11:42:14.625Z,65280.00
2022-09-03T11:43:14.676Z,67520.00
2022-09-03T11:44:14.618Z,67904.00
2022-09-03T11:45:14.669Z,66400.00
2022-09-03T11:46:15.229Z,65856.00
2022-09-03T11:47:14.653Z,66240.00
2022-09-03T11:48:14.607Z,66720.00
2022-09-03T11:49:14.551Z,66752.00
2022-09-03T11:50:14.548Z,66816.00
2022-09-03T11:51:14.551Z,67296.00
2022-09-03T11:52:14.534Z,69248.00
2022-09-03T11:53:14.708Z,70816.00
2022-09-03T11:54:14.591Z,70080.00
2022-09-03T11:55:14.772Z,68192.00
2022-09-03T11:56:14.481Z,66944.00
2022-09-03T11:57:14.460Z,67040.00
2022-09-03T11:58:14.463Z,69184.00
2022-09-03T11:59:14.564Z,70048.00
2022-09-03T12:00:14.444Z,67232.00
2022-09-03T12:01:16.108Z,68096.00
2022-09-03T12:02:14.455Z,70688.00
2022-09-03T12:03:14.433Z,69440.00
2022-09-03T12:04:14.437Z,69344.00
2022-09-03T12:05:14.448Z,72352.00
2022-09-03T12:06:14.386Z,75328.00
2022-09-03T12:07:20.053Z,75552.00
2022-09-03T12:08:15.521Z,74432.00
2022-09-03T12:09:14.351Z,73632.00
2022-09-03T12:10:14.346Z,75552.00
2022-09-03T12:11:14.498Z,78112.00
2022-09-03T12:12:14.318Z,78592.00
2022-09-03T12:13:14.319Z,75328.00
2022-09-03T12:14:14.547Z,74176.00
2022-09-03T12:15:14.280Z,75424.00
2022-09-03T12:16:14.814Z,77504.00
2022-09-03T12:17:14.368Z,78784.00
2022-09-03T12:18:14.263Z,79584.00
2022-09-03T12:19:14.256Z,80448.00
2022-09-03T12:20:14.247Z,81024.00
2022-09-03T12:21:14.308Z,81120.00
2022-09-03T12:22:14.230Z,79776.00
2022-09-03T12:23:14.240Z,80096.00
2022-09-03T12:24:14.362Z,81632.00
2022-09-03T12:25:14.197Z,83104.00
2022-09-03T12:26:14.217Z,81792.00